Time;durP1;ratioP1;P1;durP2;ratioP2;P2;SDS_P1;SDS_P2;PMS_P1;PMS_P2;Temp;Humidity;BMP_temperature;BMP_pressure;BME280_temperature;BME280_humidity;BME280_pressure;Samples;Min_cycle;Max_cycle;Signal;HPM_P1;HPM_P2
2022/01/24 00:01:40;;;;;;;14.30;10.02;;;4.60;83.00;;;;;;5057787;28;20044;-72
2022/01/24 00:04:07;;;;;;;14.27;9.45;;;4.60;83.10;;;;;;5043337;28;20040;-73
2022/01/24 00:06:33;;;;;;;12.77;9.70;;;4.60;83.10;;;;;;5025149;28;20124;-73
2022/01/24 00:09:00;;;;;;;13.00;9.20;;;4.60;83.10;;;;;;5038327;28;20603;-73
2022/01/24 00:11:38;;;;;;;12.80;9.25;;;4.60;83.10;;;;;;5046790;28;20125;-73
2022/01/24 00:17:06;;;;;;;11.68;8.68;;;4.60;83.30;;;;;;5035118;28;20531;-73
2022/01/24 00:27:45;;;;;;;11.13;8.38;;;4.50;83.30;;;;;;5064337;28;20044;-73
2022/01/24 00:30:11;;;;;;;11.77;8.47;;;4.50;83.30;;;;;;5046973;28;20032;-73
2022/01/24 00:32:37;;;;;;;11.60;8.03;;;4.50;83.30;;;;;;5029898;28;20129;-73
2022/01/24 00:35:03;;;;;;;11.83;9.23;;;4.50;83.20;;;;;;5026427;28;20047;-72
2022/01/24 00:37:32;;;;;;;11.13;8.30;;;4.50;83.10;;;;;;5036418;28;20153;-73
2022/01/24 00:39:58;;;;;;;13.32;8.52;;;4.50;83.30;;;;;;5064832;28;20047;-73
2022/01/24 00:45:06;;;;;;;11.10;8.30;;;4.50;83.10;;;;;;5052916;28;20377;-73
2022/01/24 00:55:46;;;;;;;10.55;8.18;;;4.50;82.70;;;;;;5066781;28;20036;-73
2022/01/24 00:58:13;;;;;;;11.50;7.75;;;4.50;82.90;;;;;;5046403;28;20484;-72
2022/01/24 01:00:39;;;;;;;9.88;7.68;;;4.50;82.80;;;;;;5047295;28;20132;-73
2022/01/24 01:03:05;;;;;;;11.23;7.90;;;4.40;82.60;;;;;;5043785;28;20115;-73
2022/01/24 01:05:55;;;;;;;10.35;7.53;;;4.40;82.60;;;;;;5061161;28;20944;-73
2022/01/24 01:18:59;;;;;;;8.23;6.85;;;4.40;82.60;;;;;;5006241;28;20482;-72
2022/01/24 01:21:26;;;;;;;8.67;6.77;;;4.40;82.40;;;;;;5048436;28;20103;-73
2022/01/24 01:23:57;;;;;;;8.75;7.15;;;4.40;82.50;;;;;;5054696;28;20040;-73
2022/01/24 01:29:25;;;;;;;8.27;6.38;;;4.40;82.70;;;;;;5048679;28;20298;-73
2022/01/24 01:39:46;;;;;;;8.73;6.75;;;4.30;82.40;;;;;;5049366;28;20048;-72
2022/01/24 01:58:06;;;;;;;9.50;7.18;;;4.30;82.40;;;;;;5060768;28;20133;-72
2022/01/24 02:00:33;;;;;;;10.07;6.97;;;4.30;82.60;;;;;;5060224;28;20102;-72
2022/01/24 02:02:59;;;;;;;8.40;7.05;;;4.30;82.50;;;;;;5043686;28;20050;-73
2022/01/24 02:05:25;;;;;;;9.18;7.00;;;4.30;82.40;;;;;;5038061;28;20037;-73
2022/01/24 02:07:53;;;;;;;8.87;7.07;;;4.30;82.40;;;;;;5052288;28;20381;-73
2022/01/24 02:10:21;;;;;;;10.30;6.70;;;4.30;81.90;;;;;;5050896;28;20068;-72
2022/01/24 02:12:49;;;;;;;8.10;6.82;;;4.30;82.20;;;;;;5058621;28;20098;-72
2022/01/24 02:15:23;;;;;;;11.77;7.00;;;4.30;82.30;;;;;;5047771;28;20489;-72
2022/01/24 02:25:44;;;;;;;9.52;7.47;;;4.20;82.20;;;;;;5052889;28;20032;-72
2022/01/24 02:28:11;;;;;;;10.47;7.40;;;4.20;82.30;;;;;;5040114;28;20066;-72
2022/01/24 02:33:10;;;;;;;9.77;7.55;;;4.20;82.60;;;;;;5035606;28;20048;-72
2022/01/24 02:35:36;;;;;;;8.75;7.07;;;4.20;82.40;;;;;;5026264;28;20081;-72
2022/01/24 02:38:08;;;;;;;10.10;7.00;;;4.20;82.30;;;;;;5048258;28;20109;-72
2022/01/24 02:40:34;;;;;;;8.80;7.05;;;4.20;82.40;;;;;;5039956;28;20095;-73
2022/01/24 02:48:30;;;;;;;9.23;6.65;;;4.20;82.50;;;;;;5061957;28;20047;-72
2022/01/24 02:51:34;;;;;;;11.35;7.50;;;4.20;82.50;;;;;;5031000;28;20049;-73
2022/01/24 02:54:00;;;;;;;10.15;7.30;;;4.20;82.50;;;;;;5045479;28;20457;-73
2022/01/24 02:56:25;;;;;;;9.37;7.03;;;4.20;82.60;;;;;;5027934;28;20341;-73
2022/01/24 02:58:51;;;;;;;11.07;7.50;;;4.20;82.60;;;;;;5036726;28;20056;-73
2022/01/24 03:01:17;;;;;;;12.80;7.83;;;4.20;82.50;;;;;;5027923;28;20048;-73
2022/01/24 03:03:43;;;;;;;10.87;7.70;;;4.20;82.60;;;;;;5067281;28;20045;-73
2022/01/24 03:06:09;;;;;;;9.55;7.20;;;4.20;82.60;;;;;;5048812;28;20067;-73
2022/01/24 03:08:37;;;;;;;11.13;8.23;;;4.20;82.60;;;;;;5049734;28;20041;-73
2022/01/24 03:11:03;;;;;;;11.15;8.15;;;4.20;82.60;;;;;;5046483;28;20061;-73
2022/01/24 03:15:58;;;;;;;10.57;8.33;;;4.20;82.80;;;;;;5061853;28;20093;-73
2022/01/24 03:18:25;;;;;;;11.23;8.32;;;4.20;82.70;;;;;;5061256;28;20040;-73
2022/01/24 03:20:51;;;;;;;11.60;7.50;;;4.20;82.70;;;;;;5044449;28;20810;-73
2022/01/24 03:23:18;;;;;;;10.47;8.27;;;4.20;82.80;;;;;;5060771;28;20176;-73
2022/01/24 03:25:45;;;;;;;12.10;8.45;;;4.10;82.90;;;;;;5055568;28;20085;-73
2022/01/24 03:28:11;;;;;;;11.30;8.32;;;4.10;82.80;;;;;;5044130;28;20039;-73
2022/01/24 03:30:38;;;;;;;14.02;8.63;;;4.10;82.80;;;;;;5043211;28;20076;-73
2022/01/24 03:33:05;;;;;;;12.70;8.75;;;4.10;83.00;;;;;;5052156;28;20556;-73
2022/01/24 03:35:32;;;;;;;14.63;9.32;;;4.10;83.00;;;;;;5049649;28;20477;-72
2022/01/24 03:37:58;;;;;;;13.70;8.25;;;4.10;83.10;;;;;;5053034;28;20045;-73
2022/01/24 03:40:24;;;;;;;11.03;8.70;;;4.10;83.00;;;;;;5051624;28;20486;-73
2022/01/24 03:42:50;;;;;;;10.23;7.93;;;4.10;83.10;;;;;;5041912;28;20102;-73
2022/01/24 03:45:25;;;;;;;15.30;9.10;;;4.10;83.10;;;;;;5070999;28;20043;-73
2022/01/24 03:48:06;;;;;;;;;;;4.10;83.20;;;;;;5027286;28;20147;-73
2022/01/24 03:50:32;;;;;;;12.25;8.93;;;4.10;82.90;;;;;;5046247;28;20407;-73
2022/01/24 03:52:58;;;;;;;14.30;9.23;;;4.10;83.20;;;;;;5035542;28;20139;-73
2022/01/24 03:55:24;;;;;;;13.10;9.27;;;4.10;83.30;;;;;;5029203;28;20183;-73
2022/01/24 03:57:50;;;;;;;12.53;9.43;;;4.10;83.20;;;;;;5049915;28;20057;-73
2022/01/24 04:00:16;;;;;;;14.40;9.13;;;4.10;83.30;;;;;;5062528;28;20041;-73
2022/01/24 04:02:42;;;;;;;13.50;8.87;;;4.10;83.30;;;;;;5044202;28;20048;-72
2022/01/24 04:05:09;;;;;;;11.82;8.98;;;4.10;83.30;;;;;;5041496;28;20720;-73
2022/01/24 04:07:34;;;;;;;13.45;9.82;;;4.10;83.30;;;;;;5027188;28;20048;-73
2022/01/24 04:10:06;;;;;;;12.93;8.77;;;4.10;83.30;;;;;;5026361;28;20052;-73
2022/01/24 04:12:34;;;;;;;13.30;9.07;;;4.00;83.40;;;;;;5037407;28;20041;-73
2022/01/24 04:18:13;;;;;;;14.90;9.40;;;4.10;83.50;;;;;;5007808;28;20057;-73
2022/01/24 04:23:23;;;;;;;13.65;9.43;;;4.00;83.50;;;;;;5040230;28;20056;-73
2022/01/24 04:25:48;;;;;;;11.67;8.87;;;4.00;83.60;;;;;;5052741;28;20496;-73
2022/01/24 04:28:14;;;;;;;12.73;9.37;;;4.00;83.50;;;;;;5044310;28;20041;-73
2022/01/24 04:30:40;;;;;;;13.97;9.80;;;4.00;83.60;;;;;;5034764;28;20472;-73
2022/01/24 04:33:06;;;;;;;15.07;9.47;;;4.00;83.60;;;;;;5045571;28;20041;-73
2022/01/24 04:35:31;;;;;;;14.13;9.30;;;4.00;83.80;;;;;;5052186;28;20045;-73
2022/01/24 04:37:57;;;;;;;12.93;8.80;;;4.00;83.80;;;;;;5039372;28;20076;-73
2022/01/24 04:40:25;;;;;;;16.13;10.33;;;4.00;83.70;;;;;;5067914;28;20445;-73
2022/01/24 04:43:00;;;;;;;13.95;10.07;;;4.10;83.70;;;;;;5043837;28;20507;-73
2022/01/24 04:45:36;;;;;;;14.50;9.60;;;4.10;83.80;;;;;;5055727;28;20041;-73
2022/01/24 04:50:45;;;;;;;13.43;9.82;;;4.00;83.70;;;;;;5056847;28;20045;-73
2022/01/24 04:53:30;;;;;;;14.45;9.82;;;4.00;83.70;;;;;;5039681;28;20041;-73
2022/01/24 04:55:56;;;;;;;14.25;9.52;;;4.00;83.80;;;;;;5041556;28;20049;-73
2022/01/24 04:58:21;;;;;;;13.43;9.33;;;4.00;83.80;;;;;;5022548;28;20063;-73
2022/01/24 05:00:47;;;;;;;14.40;10.17;;;4.00;83.90;;;;;;5047482;28;20041;-73
2022/01/24 05:03:13;;;;;;;18.33;10.67;;;4.00;83.80;;;;;;5047349;28;20123;-73
2022/01/24 05:05:38;;;;;;;11.53;9.00;;;4.00;83.90;;;;;;5056388;28;20029;-73
2022/01/24 05:08:06;;;;;;;15.67;10.27;;;4.00;83.80;;;;;;5061235;28;20048;-73
2022/01/24 05:10:38;;;;;;;14.95;9.90;;;4.00;83.80;;;;;;5034692;28;20060;-74
2022/01/24 05:23:23;;;;;;;13.38;9.55;;;4.00;83.70;;;;;;5027403;28;20045;-72
2022/01/24 05:24:17;;;;;;;14.57;10.50;;;4.00;83.60;;;;;;5050670;28;20040;-73
2022/01/24 05:26:43;;;;;;;13.97;9.70;;;4.00;83.70;;;;;;5033494;28;20040;-73
2022/01/24 05:29:09;;;;;;;16.60;10.43;;;4.00;83.70;;;;;;5036741;28;20145;-73
2022/01/24 05:31:35;;;;;;;15.77;10.70;;;4.00;83.80;;;;;;5033407;28;20051;-73
2022/01/24 05:34:00;;;;;;;16.07;11.13;;;4.00;83.70;;;;;;5049874;28;20036;-73
2022/01/24 05:36:26;;;;;;;16.53;11.30;;;4.00;83.80;;;;;;5020707;28;20037;-73
2022/01/24 05:38:52;;;;;;;18.63;11.43;;;4.00;83.60;;;;;;5035583;28;20079;-73
2022/01/24 05:41:17;;;;;;;18.40;12.10;;;4.00;83.60;;;;;;5060646;28;20051;-73
2022/01/24 05:43:43;;;;;;;15.73;10.77;;;4.00;83.50;;;;;;5054248;28;20044;-73
2022/01/24 05:46:09;;;;;;;17.88;11.52;;;4.00;83.60;;;;;;5031304;28;20041;-73
2022/01/24 05:48:35;;;;;;;18.77;11.90;;;4.00;83.30;;;;;;5044294;28;20036;-73
2022/01/24 05:51:01;;;;;;;16.90;11.07;;;4.00;82.90;;;;;;5034724;28;20074;-73
2022/01/24 05:53:27;;;;;;;19.23;11.50;;;4.00;83.00;;;;;;5045488;28;20302;-73
2022/01/24 05:55:53;;;;;;;16.50;11.10;;;4.00;83.00;;;;;;5037624;28;20040;-73
2022/01/24 05:58:19;;;;;;;19.10;12.15;;;4.00;82.60;;;;;;5043124;28;20127;-73
2022/01/24 06:00:45;;;;;;;17.13;11.70;;;4.00;82.90;;;;;;5048457;28;20128;-73
2022/01/24 06:03:10;;;;;;;19.30;12.10;;;4.10;82.80;;;;;;5017644;28;20481;-73
2022/01/24 06:05:36;;;;;;;17.73;11.80;;;4.10;82.10;;;;;;5055309;28;20085;-73
2022/01/24 06:08:02;;;;;;;18.63;11.03;;;4.10;81.90;;;;;;5050781;28;20056;-73
2022/01/24 06:10:28;;;;;;;16.02;11.57;;;4.10;82.10;;;;;;5017102;28;20469;-73
2022/01/24 06:12:54;;;;;;;16.48;11.48;;;4.10;81.80;;;;;;5045270;28;20092;-73
2022/01/24 06:15:20;;;;;;;17.47;11.63;;;4.10;81.90;;;;;;5063029;28;20074;-73
2022/01/24 06:17:45;;;;;;;18.63;12.00;;;4.10;81.90;;;;;;5027921;28;20042;-73
2022/01/24 06:20:11;;;;;;;17.87;11.20;;;4.10;81.70;;;;;;5023763;28;20037;-73
2022/01/24 06:22:39;;;;;;;17.17;11.63;;;4.10;81.80;;;;;;5055637;28;20602;-73
2022/01/24 06:25:06;;;;;;;17.73;11.18;;;4.10;81.90;;;;;;5048866;28;20091;-73
2022/01/24 06:27:32;;;;;;;15.23;10.68;;;4.10;81.60;;;;;;5060062;28;20045;-73
2022/01/24 06:29:58;;;;;;;15.40;11.30;;;4.10;81.60;;;;;;5043848;28;20488;-73
2022/01/24 06:32:24;;;;;;;16.40;11.23;;;4.10;81.60;;;;;;5049184;28;20070;-73
2022/01/24 06:34:49;;;;;;;19.83;11.93;;;4.10;81.70;;;;;;5015472;28;20094;-73
2022/01/24 06:37:15;;;;;;;18.90;11.70;;;4.10;81.60;;;;;;5043464;28;20045;-73
2022/01/24 06:39:43;;;;;;;16.37;10.67;;;4.10;81.70;;;;;;5036028;28;20075;-72
2022/01/24 06:42:21;;;;;;;18.95;12.27;;;4.10;81.60;;;;;;5056176;28;20037;-73
2022/01/24 06:44:47;;;;;;;17.13;12.50;;;4.10;81.50;;;;;;5038500;28;20401;-72
2022/01/24 06:47:13;;;;;;;21.30;13.40;;;4.10;81.70;;;;;;5050458;28;20444;-73
2022/01/24 06:49:38;;;;;;;19.57;13.43;;;4.10;81.60;;;;;;5056906;28;20047;-72
2022/01/24 06:52:06;;;;;;;18.63;13.40;;;4.10;81.60;;;;;;5055390;28;20048;-72
2022/01/24 06:54:36;;;;;;;22.90;15.07;;;4.00;81.70;;;;;;5047192;28;20122;-72
2022/01/24 06:57:03;;;;;;;21.05;14.18;;;4.10;81.80;;;;;;5046120;28;20036;-73
2022/01/24 06:59:29;;;;;;;23.48;16.05;;;4.00;81.70;;;;;;5061897;28;20048;-73
2022/01/24 07:01:55;;;;;;;20.55;13.65;;;4.00;81.70;;;;;;5030113;28;20041;-73
2022/01/24 07:04:21;;;;;;;21.47;13.57;;;4.00;81.70;;;;;;5050477;28;20087;-73
2022/01/24 07:06:48;;;;;;;20.63;12.95;;;4.00;81.80;;;;;;5055110;28;20647;-73
2022/01/24 07:09:14;;;;;;;22.27;13.33;;;4.00;81.60;;;;;;5058145;28;20071;-73
2022/01/24 07:11:40;;;;;;;22.17;13.23;;;4.00;81.20;;;;;;5035415;28;20072;-73
2022/01/24 07:14:11;;;;;;;20.10;13.30;;;4.00;80.70;;;;;;5062295;28;20044;-73
2022/01/24 07:17:01;;;;;;;21.35;13.15;;;4.00;80.80;;;;;;5064093;28;20074;-73
2022/01/24 07:19:30;;;;;;;21.50;13.10;;;4.00;81.10;;;;;;5053310;28;20045;-73
2022/01/24 07:21:57;;;;;;;19.67;12.88;;;4.00;80.70;;;;;;5040402;28;20099;-73
2022/01/24 07:24:24;;;;;;;21.42;13.45;;;4.00;81.00;;;;;;5055461;28;20040;-73
2022/01/24 07:26:50;;;;;;;21.60;13.45;;;4.00;80.80;;;;;;5055533;28;20048;-73
2022/01/24 07:29:16;;;;;;;20.57;12.83;;;4.00;81.10;;;;;;5053151;28;20041;-73
2022/01/24 07:31:41;;;;;;;21.33;13.93;;;4.00;81.10;;;;;;5036536;28;20284;-73
2022/01/24 07:34:07;;;;;;;22.97;13.23;;;4.00;81.20;;;;;;5065393;28;20054;-73
2022/01/24 07:36:33;;;;;;;23.63;14.23;;;4.00;81.20;;;;;;5032502;28;20156;-73
2022/01/24 07:38:59;;;;;;;19.67;12.63;;;4.00;81.00;;;;;;5028374;28;20049;-73
2022/01/24 07:41:27;;;;;;;23.97;14.03;;;4.00;81.30;;;;;;5062192;28;20043;-74
2022/01/24 07:43:54;;;;;;;24.70;13.98;;;4.00;81.20;;;;;;5039149;28;20045;-73
2022/01/24 07:46:20;;;;;;;23.55;14.25;;;3.90;81.30;;;;;;5044916;28;20106;-73
2022/01/24 07:48:45;;;;;;;21.20;14.17;;;4.00;81.20;;;;;;5027284;28;20037;-73
2022/01/24 07:51:11;;;;;;;25.23;15.90;;;4.00;81.20;;;;;;5031212;28;20098;-73
2022/01/24 07:53:37;;;;;;;23.58;15.73;;;4.00;80.80;;;;;;5063658;28;20048;-73
2022/01/24 07:56:06;;;;;;;25.93;16.30;;;4.00;80.60;;;;;;5026892;28;20190;-73
2022/01/24 07:58:32;;;;;;;26.52;15.88;;;4.00;80.50;;;;;;5037582;28;20479;-73
2022/01/24 08:00:58;;;;;;;24.52;15.40;;;4.00;80.50;;;;;;5033914;28;20048;-73
2022/01/24 08:03:27;;;;;;;27.65;16.83;;;4.00;80.80;;;;;;5026959;28;20033;-73
2022/01/24 08:05:53;;;;;;;27.40;16.53;;;4.00;80.30;;;;;;5041789;28;20043;-73
2022/01/24 08:08:19;;;;;;;27.25;16.60;;;4.10;80.50;;;;;;5062433;28;21194;-73
2022/01/24 08:10:45;;;;;;;27.27;16.53;;;4.10;80.40;;;;;;5018482;28;20135;-73
2022/01/24 08:13:13;;;;;;;30.67;18.13;;;4.10;80.40;;;;;;5039520;28;20053;-73
2022/01/24 08:15:39;;;;;;;28.33;16.42;;;4.10;80.20;;;;;;5066171;28;20545;-73
2022/01/24 08:18:05;;;;;;;26.98;16.58;;;4.10;80.50;;;;;;5045399;28;20044;-73
2022/01/24 08:20:31;;;;;;;26.60;16.87;;;4.10;80.50;;;;;;5058904;28;20036;-73
2022/01/24 08:22:57;;;;;;;26.63;15.88;;;4.10;80.50;;;;;;5044219;28;20135;-73
2022/01/24 08:25:23;;;;;;;27.27;17.10;;;4.10;80.50;;;;;;5029313;28;20389;-74
2022/01/24 08:27:49;;;;;;;28.43;17.60;;;4.10;80.60;;;;;;5036591;28;20041;-73
2022/01/24 08:30:20;;;;;;;27.17;16.83;;;4.10;80.10;;;;;;5008759;28;20409;-73
2022/01/24 08:32:46;;;;;;;29.63;18.52;;;4.10;79.60;;;;;;5053584;28;20041;-73
2022/01/24 08:35:13;;;;;;;31.55;18.92;;;4.20;79.10;;;;;;5054796;28;20076;-73
2022/01/24 08:37:39;;;;;;;27.88;17.35;;;4.20;78.80;;;;;;5050264;28;20037;-73
2022/01/24 08:40:07;;;;;;;29.20;17.20;;;4.20;79.40;;;;;;5023211;28;20059;-73
2022/01/24 08:47:31;;;;;;;26.75;16.67;;;4.20;79.50;;;;;;5052545;28;20236;-72
2022/01/24 08:49:58;;;;;;;30.10;18.15;;;4.20;79.20;;;;;;5042420;28;20036;-72
2022/01/24 08:52:26;;;;;;;28.95;17.08;;;4.20;79.20;;;;;;5033718;28;20060;-73
2022/01/24 08:54:52;;;;;;;27.40;17.90;;;4.30;79.20;;;;;;5060337;28;20044;-73
2022/01/24 08:57:24;;;;;;;28.80;18.15;;;4.30;78.70;;;;;;5051514;28;20445;-73
2022/01/24 08:59:53;;;;;;;31.88;19.08;;;4.30;78.00;;;;;;5054248;28;20041;-73
2022/01/24 09:02:20;;;;;;;29.95;18.35;;;4.30;78.10;;;;;;5049406;28;20033;-73
2022/01/24 09:04:46;;;;;;;26.77;16.48;;;4.30;78.40;;;;;;5039254;28;20052;-73
2022/01/24 09:07:13;;;;;;;29.57;18.43;;;4.30;78.20;;;;;;5038080;28;20572;-73
2022/01/24 09:09:39;;;;;;;29.30;18.17;;;4.40;78.40;;;;;;5037781;28;20556;-72
2022/01/24 09:12:11;;;;;;;31.60;18.27;;;4.40;77.80;;;;;;5027841;28;20100;-72
2022/01/24 09:14:38;;;;;;;30.75;19.13;;;4.40;78.20;;;;;;5049640;28;20048;-72
2022/01/24 09:17:04;;;;;;;27.15;17.80;;;4.40;78.10;;;;;;5043792;28;20121;-72
2022/01/24 09:19:30;;;;;;;27.23;17.97;;;4.40;77.90;;;;;;5056603;28;20082;-72
2022/01/24 09:21:56;;;;;;;28.43;17.17;;;4.50;77.60;;;;;;5007903;28;20048;-72
2022/01/24 09:24:21;;;;;;;30.50;18.70;;;4.50;78.00;;;;;;5016259;28;20555;-73
2022/01/24 09:26:47;;;;;;;28.30;18.50;;;4.50;77.60;;;;;;5034798;28;20047;-73
2022/01/24 09:29:13;;;;;;;29.83;18.77;;;4.50;77.60;;;;;;5051370;28;20048;-73
2022/01/24 09:31:39;;;;;;;28.47;18.87;;;4.50;77.80;;;;;;5039042;28;20047;-73
2022/01/24 09:34:04;;;;;;;31.33;19.23;;;4.50;77.80;;;;;;5058130;28;20127;-73
2022/01/24 09:36:30;;;;;;;31.67;19.80;;;4.50;78.10;;;;;;5053406;28;20404;-72
2022/01/24 09:38:56;;;;;;;27.10;17.47;;;4.60;77.80;;;;;;5034525;28;20044;-72
2022/01/24 09:41:22;;;;;;;29.33;18.27;;;4.60;77.80;;;;;;5036305;28;20044;-72
2022/01/24 09:43:47;;;;;;;28.63;18.90;;;4.60;77.20;;;;;;5039176;28;20294;-72
2022/01/24 09:46:14;;;;;;;29.07;18.03;;;4.60;77.50;;;;;;5030457;28;20050;-72
2022/01/24 09:48:41;;;;;;;29.50;18.55;;;4.60;77.70;;;;;;5036915;28;20044;-72
2022/01/24 09:51:08;;;;;;;30.20;18.33;;;4.60;77.80;;;;;;5053441;28;20040;-72
2022/01/24 09:53:34;;;;;;;26.05;17.65;;;4.70;77.50;;;;;;5021929;28;20043;-72
2022/01/24 09:56:03;;;;;;;29.95;18.70;;;4.70;77.50;;;;;;5023118;28;20454;-72
2022/01/24 09:58:31;;;;;;;31.77;18.85;;;4.70;78.00;;;;;;5052492;28;20106;-73
2022/01/24 10:00:59;;;;;;;29.88;18.83;;;4.70;77.50;;;;;;5060066;28;20045;-73
2022/01/24 10:03:25;;;;;;;30.83;19.75;;;4.70;77.50;;;;;;5037373;28;20097;-73
2022/01/24 10:05:54;;;;;;;29.50;18.40;;;4.70;77.30;;;;;;5057802;28;20041;-73
2022/01/24 10:08:22;;;;;;;31.90;19.10;;;4.70;77.50;;;;;;5061714;28;20436;-73
2022/01/24 10:10:50;;;;;;;32.00;19.15;;;4.80;77.90;;;;;;5040828;28;20637;-73
2022/01/24 10:16:29;;;;;;;30.30;18.38;;;4.80;77.50;;;;;;5061252;28;20086;-73
2022/01/24 10:19:04;;;;;;;30.30;19.08;;;4.80;77.10;;;;;;5053395;28;20089;-73
2022/01/24 10:21:35;;;;;;;28.48;18.98;;;4.90;77.00;;;;;;5048624;28;20091;-72
2022/01/24 10:24:01;;;;;;;29.55;19.20;;;4.90;76.80;;;;;;5038845;28;20032;-72
2022/01/24 10:26:26;;;;;;;31.00;18.87;;;4.90;76.60;;;;;;5061784;28;20090;-73
2022/01/24 10:28:52;;;;;;;29.63;18.30;;;4.90;77.00;;;;;;5044073;28;20036;-73
2022/01/24 10:31:23;;;;;;;29.43;19.00;;;4.90;76.30;;;;;;5039433;28;20044;-73
2022/01/24 10:33:53;;;;;;;28.40;17.75;;;5.00;76.80;;;;;;5038618;28;20650;-73
2022/01/24 10:36:36;;;;;;;32.67;18.98;;;5.00;76.60;;;;;;5055922;28;20032;-73
2022/01/24 10:39:08;;;;;;;27.33;18.10;;;5.00;77.00;;;;;;5050225;28;20048;-73
2022/01/24 10:41:54;;;;;;;29.88;17.85;;;5.00;76.50;;;;;;5061471;28;20041;-72
2022/01/24 10:44:28;;;;;;;30.00;18.35;;;5.00;76.70;;;;;;5035621;28;20059;-73
2022/01/24 10:47:13;;;;;;;28.20;17.30;;;5.00;76.30;;;;;;5056029;28;20068;-73
2022/01/24 10:49:40;;;;;;;28.38;18.15;;;5.10;76.60;;;;;;5055591;28;20300;-72
2022/01/24 10:52:21;;;;;;;28.75;17.45;;;5.10;75.90;;;;;;5061669;28;20152;-72
2022/01/24 10:54:48;;;;;;;28.17;18.30;;;5.10;76.30;;;;;;5035003;28;20066;-73
2022/01/24 10:57:40;;;;;;;26.75;16.98;;;5.10;76.20;;;;;;5020856;28;21001;-73
2022/01/24 11:00:08;;;;;;;28.05;17.90;;;5.10;75.80;;;;;;5040776;28;20744;-72
2022/01/24 11:02:42;;;;;;;27.08;17.20;;;5.10;75.70;;;;;;5048126;28;20072;-72
2022/01/24 11:05:12;;;;;;;30.17;19.00;;;5.10;75.50;;;;;;5041867;28;20436;-72
2022/01/24 11:07:51;;;;;;;27.75;17.13;;;5.20;75.70;;;;;;5046365;28;20032;-72
2022/01/24 11:10:18;;;;;;;28.67;18.35;;;5.20;75.40;;;;;;5057671;28;20302;-72
2022/01/24 11:12:43;;;;;;;29.35;18.13;;;5.20;75.50;;;;;;5052185;28;20037;-72
2022/01/24 11:15:12;;;;;;;30.87;18.30;;;5.20;75.20;;;;;;5023095;28;20037;-72
2022/01/24 11:17:40;;;;;;;28.55;17.88;;;5.20;75.20;;;;;;5047811;28;20052;-72
2022/01/24 11:20:09;;;;;;;28.38;17.75;;;5.20;74.30;;;;;;5037306;28;20051;-72
2022/01/24 11:22:40;;;;;;;31.38;19.02;;;5.20;74.30;;;;;;5027603;28;20044;-72
2022/01/24 11:25:08;;;;;;;26.90;17.20;;;5.20;74.20;;;;;;5039620;28;20414;-72
2022/01/24 11:27:36;;;;;;;35.53;18.30;;;5.30;74.80;;;;;;5048958;28;20084;-73
2022/01/24 11:30:10;;;;;;;27.65;16.67;;;5.30;74.90;;;;;;5022770;28;20103;-73
2022/01/24 11:33:07;;;;;;;27.17;17.15;;;5.30;74.50;;;;;;5048367;28;20039;-72
2022/01/24 11:35:50;;;;;;;27.83;17.23;;;5.30;74.60;;;;;;5040784;28;20048;-72
2022/01/24 11:38:36;;;;;;;29.25;17.77;;;5.30;74.20;;;;;;5038958;28;20041;-73
2022/01/24 11:41:04;;;;;;;28.05;17.00;;;5.30;74.40;;;;;;5059605;28;20036;-72
2022/01/24 11:43:33;;;;;;;28.27;17.55;;;5.30;73.80;;;;;;5057143;28;20421;-72
2022/01/24 11:46:05;;;;;;;31.40;17.92;;;5.30;73.70;;;;;;5041702;28;20051;-72
2022/01/24 11:48:32;;;;;;;30.90;18.90;;;5.40;74.30;;;;;;5045284;28;20082;-72
2022/01/24 11:51:12;;;;;;;30.85;18.48;;;5.30;72.60;;;;;;5054504;28;20049;-72
2022/01/24 11:53:43;;;;;;;29.08;18.17;;;5.30;74.10;;;;;;5064954;28;20079;-72
2022/01/24 11:56:31;;;;;;;28.30;17.67;;;5.40;74.40;;;;;;5052978;28;20584;-72
2022/01/24 11:59:20;;;;;;;30.15;17.65;;;5.40;73.20;;;;;;5047691;28;20048;-73
2022/01/24 12:01:53;;;;;;;32.15;17.98;;;5.40;73.30;;;;;;5039647;28;20040;-72
2022/01/24 12:04:58;;;;;;;27.77;17.58;;;5.40;73.20;;;;;;5057363;28;20094;-72
2022/01/24 12:07:30;;;;;;;28.27;17.35;;;5.40;72.60;;;;;;5068759;28;20044;-73
2022/01/24 12:10:22;;;;;;;29.40;17.63;;;5.40;73.30;;;;;;5056594;28;20059;-73
2022/01/24 12:12:55;;;;;;;29.58;17.92;;;5.40;73.50;;;;;;5063315;28;20050;-73
2022/01/24 12:15:36;;;;;;;29.02;17.42;;;5.40;72.80;;;;;;5049374;28;20055;-73
2022/01/24 12:18:09;;;;;;;32.38;18.35;;;5.40;72.90;;;;;;5057055;28;20135;-73
2022/01/24 12:20:35;;;;;;;29.08;17.42;;;5.40;72.90;;;;;;5053153;28;20045;-72
2022/01/24 12:23:25;;;;;;;29.70;18.47;;;5.50;73.00;;;;;;5037273;28;20065;-73
2022/01/24 12:25:58;;;;;;;29.60;17.75;;;5.50;72.40;;;;;;5056802;28;20476;-73
2022/01/24 12:28:33;;;;;;;28.88;17.85;;;5.50;73.00;;;;;;5055223;28;20044;-73
2022/01/24 12:31:07;;;;;;;31.25;18.15;;;5.50;72.70;;;;;;5055665;28;20517;-72
2022/01/24 12:33:44;;;;;;;28.95;18.55;;;5.50;72.40;;;;;;5037910;28;20044;-72
2022/01/24 12:36:13;;;;;;;31.88;19.10;;;5.50;72.30;;;;;;5049358;28;20071;-72
2022/01/24 12:38:48;;;;;;;29.67;18.02;;;5.50;72.30;;;;;;5046541;28;20070;-72
2022/01/24 12:41:24;;;;;;;29.83;18.17;;;5.50;72.80;;;;;;5031484;28;20036;-72
2022/01/24 12:46:26;;;;;;;32.78;18.63;;;5.40;72.30;;;;;;5055022;28;20045;-73
2022/01/24 12:48:53;;;;;;;33.35;19.20;;;5.50;72.10;;;;;;5064724;28;20054;-73
2022/01/24 12:51:23;;;;;;;31.50;18.55;;;5.40;71.10;;;;;;5064696;28;20040;-73
2022/01/24 12:53:50;;;;;;;32.38;19.48;;;5.40;72.50;;;;;;5061052;28;20051;-72
2022/01/24 12:56:18;;;;;;;32.78;18.75;;;5.40;71.00;;;;;;5019796;28;20110;-73
2022/01/24 12:58:46;;;;;;;32.22;19.27;;;5.40;71.10;;;;;;5028809;28;20128;-73
2022/01/24 13:01:30;;;;;;;28.92;18.63;;;5.30;71.60;;;;;;5056973;28;20071;-73
2022/01/24 13:03:58;;;;;;;33.03;18.85;;;5.30;71.90;;;;;;5066310;28;20040;-73
2022/01/24 13:06:25;;;;;;;36.92;21.05;;;5.30;71.70;;;;;;5059419;28;20522;-73
2022/01/24 13:08:56;;;;;;;33.70;19.55;;;5.30;70.80;;;;;;5047163;28;20402;-74
2022/01/24 13:11:22;;;;;;;32.08;19.00;;;5.30;71.50;;;;;;5048174;28;20230;-73
2022/01/24 13:14:15;;;;;;;34.25;19.30;;;5.30;71.60;;;;;;5028374;28;20084;-73
2022/01/24 13:22:35;;;;;;;33.53;19.35;;;5.20;71.30;;;;;;5064954;28;20051;-73
2022/01/24 13:25:09;;;;;;;29.65;18.25;;;5.20;71.90;;;;;;5038082;28;20040;-73
2022/01/24 13:27:41;;;;;;;31.20;19.63;;;5.20;71.80;;;;;;5063655;28;20047;-72
2022/01/24 13:30:27;;;;;;;34.60;20.00;;;5.30;72.20;;;;;;5060941;28;20041;-72
2022/01/24 13:32:53;;;;;;;;;;;5.20;71.20;;;;;;5054604;28;20093;-73
2022/01/24 13:35:30;;;;;;;32.78;19.40;;;5.20;71.50;;;;;;5032566;28;19920;-72
2022/01/24 13:38:30;;;;;;;33.20;19.67;;;5.20;71.80;;;;;;5037389;28;20094;-72
2022/01/24 13:41:06;;;;;;;31.20;19.13;;;5.30;71.90;;;;;;5029197;28;20056;-72
2022/01/24 13:43:40;;;;;;;37.80;20.35;;;5.20;71.20;;;;;;5061819;28;20040;-73
2022/01/24 13:46:15;;;;;;;37.50;21.60;;;5.20;71.60;;;;;;5036565;28;20040;-73
2022/01/24 13:48:50;;;;;;;35.45;20.45;;;5.20;71.30;;;;;;5067430;28;20107;-72
2022/01/24 13:51:26;;;;;;;37.50;21.13;;;5.20;71.30;;;;;;5063438;28;20048;-72
2022/01/24 13:53:51;;;;;;;36.47;22.00;;;5.20;71.50;;;;;;5048406;28;20073;-72
2022/01/24 13:56:36;;;;;;;37.80;22.37;;;5.10;71.70;;;;;;5052838;28;20436;-73
2022/01/24 13:59:21;;;;;;;37.90;22.42;;;5.10;72.50;;;;;;5058468;28;20076;-73
2022/01/24 14:02:12;;;;;;;35.63;21.55;;;5.10;72.10;;;;;;5045908;28;20131;-73
2022/01/24 14:04:52;;;;;;;38.40;22.58;;;5.10;72.20;;;;;;5057071;28;20040;-73
2022/01/24 14:07:41;;;;;;;37.00;22.58;;;5.10;72.20;;;;;;5057223;28;20055;-73
2022/01/24 14:10:13;;;;;;;35.55;21.60;;;5.00;72.20;;;;;;5045724;28;21085;-73
2022/01/24 14:12:45;;;;;;;39.75;24.00;;;5.00;73.00;;;;;;5053072;28;20076;-72
2022/01/24 14:15:40;;;;;;;38.75;22.17;;;5.00;72.10;;;;;;5063990;28;20123;-73
2022/01/24 14:20:54;;;;;;;41.97;24.10;;;5.00;72.30;;;;;;5057101;28;20044;-73
2022/01/24 14:23:20;;;;;;;41.38;24.45;;;5.00;73.00;;;;;;5049546;28;20043;-73
2022/01/24 14:25:46;;;;;;;38.15;23.00;;;4.90;72.90;;;;;;5040804;28;20036;-73
2022/01/24 14:28:13;;;;;;;39.07;22.20;;;4.90;73.10;;;;;;5041142;28;20047;-73
2022/01/24 14:30:43;;;;;;;37.80;23.42;;;4.90;72.80;;;;;;5054620;28;20428;-73
2022/01/24 14:33:13;;;;;;;40.25;24.40;;;4.90;73.10;;;;;;5057500;28;20117;-73
2022/01/24 14:35:44;;;;;;;37.97;22.10;;;4.90;73.00;;;;;;5059018;28;20127;-73
2022/01/24 14:38:10;;;;;;;43.42;24.08;;;4.90;73.00;;;;;;5047426;28;20489;-73
2022/01/24 14:40:47;;;;;;;39.38;23.45;;;4.80;72.90;;;;;;5065466;28;20108;-73
2022/01/24 14:46:14;;;;;;;45.30;24.30;;;4.80;72.90;;;;;;5062400;28;20133;-73
2022/01/24 14:48:49;;;;;;;41.70;24.50;;;4.80;73.10;;;;;;5041590;28;20041;-73
2022/01/24 14:51:17;;;;;;;47.72;24.80;;;4.80;73.40;;;;;;5045110;28;20040;-72